sensor_id;sensor_type;location;lat;lon;timestamp;P1;durP1;ratioP1;P2;durP2;ratioP2
58768;SDS011;44536;47.474;19.056;2023-02-28T00:00:10;11.02;;;6.05;;
58768;SDS011;44536;47.474;19.056;2023-02-28T00:03:14;15.20;;;6.80;;
58768;SDS011;44536;47.474;19.056;2023-02-28T00:06:16;19.95;;;6.65;;
58768;SDS011;44536;47.474;19.056;2023-02-28T00:09:19;13.20;;;6.50;;
58768;SDS011;44536;47.474;19.056;2023-02-28T00:12:21;13.15;;;7.65;;
58768;SDS011;44536;47.474;19.056;2023-02-28T00:15:25;11.20;;;6.12;;
58768;SDS011;44536;47.474;19.056;2023-02-28T00:18:27;10.77;;;6.30;;
58768;SDS011;44536;47.474;19.056;2023-02-28T00:21:32;11.77;;;6.18;;
58768;SDS011;44536;47.474;19.056;2023-02-28T00:24:35;12.55;;;7.30;;
58768;SDS011;44536;47.474;19.056;2023-02-28T00:27:38;14.02;;;7.47;;
58768;SDS011;44536;47.474;19.056;2023-02-28T00:30:41;17.80;;;8.27;;
58768;SDS011;44536;47.474;19.056;2023-02-28T00:33:44;15.80;;;7.87;;
58768;SDS011;44536;47.474;19.056;2023-02-28T00:36:48;14.65;;;7.95;;
58768;SDS011;44536;47.474;19.056;2023-02-28T00:39:51;13.15;;;7.18;;
58768;SDS011;44536;47.474;19.056;2023-02-28T00:42:53;15.38;;;7.72;;
58768;SDS011;44536;47.474;19.056;2023-02-28T00:45:56;16.90;;;7.30;;
58768;SDS011;44536;47.474;19.056;2023-02-28T00:48:58;12.75;;;6.82;;
58768;SDS011;44536;47.474;19.056;2023-02-28T00:52:00;15.48;;;7.68;;
58768;SDS011;44536;47.474;19.056;2023-02-28T00:55:03;14.60;;;6.30;;
58768;SDS011;44536;47.474;19.056;2023-02-28T00:58:07;15.88;;;6.93;;
58768;SDS011;44536;47.474;19.056;2023-02-28T01:01:09;15.18;;;6.25;;
58768;SDS011;44536;47.474;19.056;2023-02-28T01:04:12;10.93;;;6.13;;
58768;SDS011;44536;47.474;19.056;2023-02-28T01:10:18;12.68;;;6.37;;
58768;SDS011;44536;47.474;19.056;2023-02-28T01:13:20;15.15;;;6.22;;
58768;SDS011;44536;47.474;19.056;2023-02-28T01:16:25;11.60;;;6.53;;
58768;SDS011;44536;47.474;19.056;2023-02-28T01:19:28;13.65;;;6.40;;
58768;SDS011;44536;47.474;19.056;2023-02-28T01:22:30;10.60;;;5.30;;
58768;SDS011;44536;47.474;19.056;2023-02-28T01:25:36;13.05;;;6.25;;
58768;SDS011;44536;47.474;19.056;2023-02-28T01:28:39;10.98;;;5.82;;
58768;SDS011;44536;47.474;19.056;2023-02-28T01:31:41;8.87;;;5.13;;
58768;SDS011;44536;47.474;19.056;2023-02-28T01:34:44;13.65;;;6.93;;
58768;SDS011;44536;47.474;19.056;2023-02-28T01:37:46;11.50;;;5.68;;
58768;SDS011;44536;47.474;19.056;2023-02-28T01:40:51;12.48;;;5.90;;
58768;SDS011;44536;47.474;19.056;2023-02-28T01:46:58;13.40;;;6.50;;
58768;SDS011;44536;47.474;19.056;2023-02-28T01:50:01;11.98;;;6.10;;
58768;SDS011;44536;47.474;19.056;2023-02-28T01:53:07;9.70;;;5.30;;
58768;SDS011;44536;47.474;19.056;2023-02-28T01:56:17;11.68;;;6.43;;
58768;SDS011;44536;47.474;19.056;2023-02-28T01:59:26;20.83;;;6.95;;
58768;SDS011;44536;47.474;19.056;2023-02-28T02:02:35;15.57;;;7.47;;
58768;SDS011;44536;47.474;19.056;2023-02-28T02:05:39;13.35;;;7.47;;
58768;SDS011;44536;47.474;19.056;2023-02-28T02:08:42;12.82;;;6.93;;
58768;SDS011;44536;47.474;19.056;2023-02-28T02:11:45;12.85;;;6.65;;
58768;SDS011;44536;47.474;19.056;2023-02-28T02:15:12;16.35;;;7.45;;
58768;SDS011;44536;47.474;19.056;2023-02-28T02:18:25;13.82;;;8.50;;
58768;SDS011;44536;47.474;19.056;2023-02-28T02:38:53;9.80;;;5.43;;
58768;SDS011;44536;47.474;19.056;2023-02-28T02:42:05;11.30;;;5.78;;
58768;SDS011;44536;47.474;19.056;2023-02-28T02:45:17;9.57;;;5.65;;
58768;SDS011;44536;47.474;19.056;2023-02-28T02:48:29;14.48;;;5.75;;
58768;SDS011;44536;47.474;19.056;2023-02-28T02:51:34;11.95;;;6.25;;
58768;SDS011;44536;47.474;19.056;2023-02-28T02:54:40;10.75;;;6.50;;
58768;SDS011;44536;47.474;19.056;2023-02-28T02:57:48;11.15;;;6.25;;
58768;SDS011;44536;47.474;19.056;2023-02-28T03:00:57;13.62;;;7.45;;
58768;SDS011;44536;47.474;19.056;2023-02-28T03:04:12;11.38;;;5.55;;
58768;SDS011;44536;47.474;19.056;2023-02-28T03:07:19;12.60;;;5.97;;
58768;SDS011;44536;47.474;19.056;2023-02-28T03:10:26;11.95;;;6.65;;
58768;SDS011;44536;47.474;19.056;2023-02-28T03:20:38;15.05;;;7.32;;
58768;SDS011;44536;47.474;19.056;2023-02-28T03:27:15;12.95;;;5.70;;
58768;SDS011;44536;47.474;19.056;2023-02-28T03:30:24;14.68;;;5.85;;
58768;SDS011;44536;47.474;19.056;2023-02-28T03:33:34;12.07;;;6.10;;
58768;SDS011;44536;47.474;19.056;2023-02-28T03:36:44;11.95;;;7.37;;
58768;SDS011;44536;47.474;19.056;2023-02-28T03:39:55;12.48;;;6.47;;
58768;SDS011;44536;47.474;19.056;2023-02-28T03:43:02;12.30;;;6.22;;
58768;SDS011;44536;47.474;19.056;2023-02-28T03:46:12;16.37;;;6.68;;
58768;SDS011;44536;47.474;19.056;2023-02-28T03:49:22;13.30;;;6.57;;
58768;SDS011;44536;47.474;19.056;2023-02-28T03:52:31;12.40;;;6.80;;
58768;SDS011;44536;47.474;19.056;2023-02-28T03:56:20;12.05;;;6.32;;
58768;SDS011;44536;47.474;19.056;2023-02-28T03:59:19;13.02;;;5.90;;
58768;SDS011;44536;47.474;19.056;2023-02-28T04:02:27;9.27;;;4.93;;
58768;SDS011;44536;47.474;19.056;2023-02-28T04:05:29;11.77;;;5.47;;
58768;SDS011;44536;47.474;19.056;2023-02-28T04:08:33;9.73;;;5.25;;
58768;SDS011;44536;47.474;19.056;2023-02-28T04:11:39;11.07;;;4.50;;
58768;SDS011;44536;47.474;19.056;2023-02-28T04:14:43;12.23;;;6.55;;
58768;SDS011;44536;47.474;19.056;2023-02-28T04:17:46;12.25;;;5.45;;
58768;SDS011;44536;47.474;19.056;2023-02-28T04:20:48;15.85;;;6.37;;
58768;SDS011;44536;47.474;19.056;2023-02-28T04:23:50;12.73;;;6.15;;
58768;SDS011;44536;47.474;19.056;2023-02-28T04:26:54;12.25;;;5.85;;
58768;SDS011;44536;47.474;19.056;2023-02-28T04:29:58;11.77;;;7.28;;
58768;SDS011;44536;47.474;19.056;2023-02-28T04:33:00;9.82;;;5.90;;
58768;SDS011;44536;47.474;19.056;2023-02-28T04:36:04;13.70;;;6.62;;
58768;SDS011;44536;47.474;19.056;2023-02-28T04:39:09;13.07;;;7.47;;
58768;SDS011;44536;47.474;19.056;2023-02-28T04:42:12;12.57;;;6.82;;
58768;SDS011;44536;47.474;19.056;2023-02-28T04:45:15;10.75;;;5.78;;
58768;SDS011;44536;47.474;19.056;2023-02-28T04:48:17;10.18;;;5.68;;
58768;SDS011;44536;47.474;19.056;2023-02-28T04:51:22;15.60;;;7.12;;
58768;SDS011;44536;47.474;19.056;2023-02-28T04:54:25;13.65;;;6.15;;
58768;SDS011;44536;47.474;19.056;2023-02-28T04:57:27;13.10;;;6.22;;
58768;SDS011;44536;47.474;19.056;2023-02-28T05:00:30;13.57;;;6.82;;
58768;SDS011;44536;47.474;19.056;2023-02-28T05:03:32;10.88;;;5.62;;
58768;SDS011;44536;47.474;19.056;2023-02-28T05:06:34;12.60;;;7.00;;
58768;SDS011;44536;47.474;19.056;2023-02-28T05:09:37;10.45;;;5.37;;
58768;SDS011;44536;47.474;19.056;2023-02-28T05:12:39;11.27;;;6.55;;
58768;SDS011;44536;47.474;19.056;2023-02-28T05:15:42;13.95;;;7.22;;
58768;SDS011;44536;47.474;19.056;2023-02-28T05:18:44;13.57;;;6.20;;
58768;SDS011;44536;47.474;19.056;2023-02-28T05:21:51;13.73;;;6.53;;
58768;SDS011;44536;47.474;19.056;2023-02-28T05:24:55;13.02;;;6.18;;
58768;SDS011;44536;47.474;19.056;2023-02-28T05:27:57;14.48;;;5.87;;
58768;SDS011;44536;47.474;19.056;2023-02-28T05:30:59;12.00;;;6.35;;
58768;SDS011;44536;47.474;19.056;2023-02-28T05:34:02;11.20;;;5.97;;
58768;SDS011;44536;47.474;19.056;2023-02-28T05:40:12;12.70;;;5.93;;
58768;SDS011;44536;47.474;19.056;2023-02-28T05:43:15;12.55;;;5.55;;
58768;SDS011;44536;47.474;19.056;2023-02-28T05:46:17;11.90;;;5.28;;
58768;SDS011;44536;47.474;19.056;2023-02-28T05:49:19;11.73;;;4.90;;
58768;SDS011;44536;47.474;19.056;2023-02-28T05:52:22;10.05;;;4.30;;
58768;SDS011;44536;47.474;19.056;2023-02-28T05:55:25;9.50;;;5.45;;
58768;SDS011;44536;47.474;19.056;2023-02-28T05:58:27;14.60;;;6.05;;
58768;SDS011;44536;47.474;19.056;2023-02-28T06:01:37;10.65;;;5.45;;
58768;SDS011;44536;47.474;19.056;2023-02-28T06:04:45;8.63;;;5.00;;
58768;SDS011;44536;47.474;19.056;2023-02-28T06:07:47;10.05;;;5.70;;
58768;SDS011;44536;47.474;19.056;2023-02-28T06:10:50;13.07;;;6.18;;
58768;SDS011;44536;47.474;19.056;2023-02-28T06:13:56;11.23;;;6.35;;
58768;SDS011;44536;47.474;19.056;2023-02-28T06:17:00;12.18;;;6.12;;
58768;SDS011;44536;47.474;19.056;2023-02-28T06:20:03;11.65;;;5.37;;
58768;SDS011;44536;47.474;19.056;2023-02-28T06:26:08;18.95;;;6.30;;
58768;SDS011;44536;47.474;19.056;2023-02-28T06:29:11;15.05;;;6.32;;
58768;SDS011;44536;47.474;19.056;2023-02-28T06:32:13;11.77;;;6.43;;
58768;SDS011;44536;47.474;19.056;2023-02-28T06:35:16;13.03;;;5.70;;
58768;SDS011;44536;47.474;19.056;2023-02-28T06:38:19;11.53;;;5.67;;
58768;SDS011;44536;47.474;19.056;2023-02-28T06:41:22;16.12;;;9.00;;
58768;SDS011;44536;47.474;19.056;2023-02-28T06:44:27;14.95;;;5.55;;
58768;SDS011;44536;47.474;19.056;2023-02-28T06:47:36;10.48;;;5.85;;
58768;SDS011;44536;47.474;19.056;2023-02-28T06:50:40;14.93;;;5.68;;
58768;SDS011;44536;47.474;19.056;2023-02-28T06:53:43;10.95;;;5.57;;
58768;SDS011;44536;47.474;19.056;2023-02-28T06:56:45;11.23;;;6.32;;
58768;SDS011;44536;47.474;19.056;2023-02-28T07:02:51;12.18;;;6.50;;
58768;SDS011;44536;47.474;19.056;2023-02-28T07:05:53;14.07;;;6.22;;
58768;SDS011;44536;47.474;19.056;2023-02-28T07:08:58;12.23;;;6.97;;
58768;SDS011;44536;47.474;19.056;2023-02-28T07:12:02;13.65;;;7.07;;
58768;SDS011;44536;47.474;19.056;2023-02-28T07:15:04;10.80;;;6.07;;
58768;SDS011;44536;47.474;19.056;2023-02-28T07:18:07;10.02;;;6.20;;
58768;SDS011;44536;47.474;19.056;2023-02-28T07:21:10;13.60;;;5.90;;
58768;SDS011;44536;47.474;19.056;2023-02-28T07:24:13;11.60;;;6.60;;
58768;SDS011;44536;47.474;19.056;2023-02-28T07:27:17;12.13;;;6.30;;
58768;SDS011;44536;47.474;19.056;2023-02-28T07:30:25;10.02;;;5.12;;
58768;SDS011;44536;47.474;19.056;2023-02-28T07:33:28;15.60;;;7.20;;
58768;SDS011;44536;47.474;19.056;2023-02-28T07:36:30;9.70;;;5.90;;
58768;SDS011;44536;47.474;19.056;2023-02-28T07:39:33;13.40;;;6.12;;
58768;SDS011;44536;47.474;19.056;2023-02-28T07:42:35;10.80;;;6.43;;
58768;SDS011;44536;47.474;19.056;2023-02-28T07:45:38;12.63;;;6.78;;
58768;SDS011;44536;47.474;19.056;2023-02-28T07:48:41;16.15;;;6.40;;
58768;SDS011;44536;47.474;19.056;2023-02-28T07:51:48;13.40;;;6.80;;
58768;SDS011;44536;47.474;19.056;2023-02-28T07:54:51;11.12;;;5.55;;
58768;SDS011;44536;47.474;19.056;2023-02-28T07:57:53;10.07;;;5.12;;
58768;SDS011;44536;47.474;19.056;2023-02-28T08:00:56;13.77;;;6.47;;
58768;SDS011;44536;47.474;19.056;2023-02-28T08:04:00;11.48;;;5.43;;
58768;SDS011;44536;47.474;19.056;2023-02-28T08:07:02;12.32;;;6.15;;
58768;SDS011;44536;47.474;19.056;2023-02-28T08:10:05;12.32;;;5.87;;
58768;SDS011;44536;47.474;19.056;2023-02-28T08:13:07;11.13;;;5.43;;
58768;SDS011;44536;47.474;19.056;2023-02-28T08:16:11;11.20;;;4.57;;
58768;SDS011;44536;47.474;19.056;2023-02-28T08:19:19;11.10;;;6.20;;
58768;SDS011;44536;47.474;19.056;2023-02-28T08:22:21;10.98;;;5.47;;
58768;SDS011;44536;47.474;19.056;2023-02-28T08:25:24;10.43;;;5.07;;
58768;SDS011;44536;47.474;19.056;2023-02-28T08:28:26;13.15;;;6.60;;
58768;SDS011;44536;47.474;19.056;2023-02-28T08:31:28;11.10;;;5.72;;
58768;SDS011;44536;47.474;19.056;2023-02-28T08:34:31;11.88;;;5.90;;
58768;SDS011;44536;47.474;19.056;2023-02-28T08:37:34;10.68;;;5.10;;
58768;SDS011;44536;47.474;19.056;2023-02-28T08:40:37;11.48;;;5.10;;
58768;SDS011;44536;47.474;19.056;2023-02-28T08:43:39;10.00;;;5.43;;
58768;SDS011;44536;47.474;19.056;2023-02-28T08:46:42;11.77;;;5.25;;
58768;SDS011;44536;47.474;19.056;2023-02-28T08:49:45;9.63;;;4.82;;
58768;SDS011;44536;47.474;19.056;2023-02-28T08:52:48;10.15;;;3.83;;
58768;SDS011;44536;47.474;19.056;2023-02-28T08:56:00;9.10;;;4.53;;
58768;SDS011;44536;47.474;19.056;2023-02-28T08:59:08;9.65;;;5.87;;
58768;SDS011;44536;47.474;19.056;2023-02-28T09:02:13;10.52;;;6.32;;
58768;SDS011;44536;47.474;19.056;2023-02-28T09:05:17;8.23;;;4.65;;
58768;SDS011;44536;47.474;19.056;2023-02-28T09:08:19;9.35;;;4.30;;
58768;SDS011;44536;47.474;19.056;2023-02-28T09:11:22;8.77;;;4.30;;
58768;SDS011;44536;47.474;19.056;2023-02-28T09:14:24;9.75;;;5.70;;
58768;SDS011;44536;47.474;19.056;2023-02-28T09:17:26;11.82;;;5.32;;
58768;SDS011;44536;47.474;19.056;2023-02-28T09:20:31;11.55;;;4.45;;
58768;SDS011;44536;47.474;19.056;2023-02-28T09:23:34;8.45;;;5.37;;
58768;SDS011;44536;47.474;19.056;2023-02-28T09:26:40;9.32;;;5.75;;
58768;SDS011;44536;47.474;19.056;2023-02-28T09:29:48;9.95;;;5.07;;
58768;SDS011;44536;47.474;19.056;2023-02-28T09:32:50;7.90;;;4.47;;
58768;SDS011;44536;47.474;19.056;2023-02-28T09:35:58;9.40;;;4.75;;
58768;SDS011;44536;47.474;19.056;2023-02-28T09:39:02;9.15;;;5.05;;
58768;SDS011;44536;47.474;19.056;2023-02-28T09:42:05;11.32;;;6.07;;
58768;SDS011;44536;47.474;19.056;2023-02-28T09:45:24;8.57;;;4.72;;
58768;SDS011;44536;47.474;19.056;2023-02-28T09:48:35;10.70;;;5.30;;
58768;SDS011;44536;47.474;19.056;2023-02-28T09:58:43;9.48;;;5.53;;
58768;SDS011;44536;47.474;19.056;2023-02-28T10:01:52;8.60;;;4.15;;
58768;SDS011;44536;47.474;19.056;2023-02-28T10:05:08;7.07;;;4.03;;
58768;SDS011;44536;47.474;19.056;2023-02-28T10:08:22;9.43;;;4.35;;
58768;SDS011;44536;47.474;19.056;2023-02-28T10:11:29;11.68;;;4.87;;
58768;SDS011;44536;47.474;19.056;2023-02-28T10:14:35;9.25;;;4.87;;
58768;SDS011;44536;47.474;19.056;2023-02-28T10:17:45;7.80;;;3.92;;
58768;SDS011;44536;47.474;19.056;2023-02-28T10:21:01;9.00;;;4.78;;
58768;SDS011;44536;47.474;19.056;2023-02-28T10:27:23;13.27;;;5.12;;
58768;SDS011;44536;47.474;19.056;2023-02-28T10:30:28;9.63;;;4.62;;
58768;SDS011;44536;47.474;19.056;2023-02-28T10:33:32;11.98;;;5.32;;
58768;SDS011;44536;47.474;19.056;2023-02-28T10:36:38;12.65;;;6.47;;
58768;SDS011;44536;47.474;19.056;2023-02-28T10:43:00;10.85;;;5.37;;
58768;SDS011;44536;47.474;19.056;2023-02-28T10:49:17;10.48;;;5.10;;
58768;SDS011;44536;47.474;19.056;2023-02-28T10:52:36;10.07;;;5.03;;
58768;SDS011;44536;47.474;19.056;2023-02-28T10:55:41;11.18;;;5.68;;
58768;SDS011;44536;47.474;19.056;2023-02-28T11:02:31;14.60;;;6.10;;
58768;SDS011;44536;47.474;19.056;2023-02-28T11:05:37;11.05;;;5.32;;
58768;SDS011;44536;47.474;19.056;2023-02-28T11:08:43;8.90;;;5.20;;
58768;SDS011;44536;47.474;19.056;2023-02-28T11:12:23;8.48;;;5.45;;
58768;SDS011;44536;47.474;19.056;2023-02-28T11:15:29;9.48;;;4.60;;
58768;SDS011;44536;47.474;19.056;2023-02-28T11:18:37;11.60;;;6.25;;
58768;SDS011;44536;47.474;19.056;2023-02-28T11:21:47;11.70;;;5.97;;
58768;SDS011;44536;47.474;19.056;2023-02-28T11:25:01;9.63;;;6.22;;
58768;SDS011;44536;47.474;19.056;2023-02-28T11:31:32;13.65;;;5.22;;
58768;SDS011;44536;47.474;19.056;2023-02-28T11:34:36;10.83;;;4.70;;
58768;SDS011;44536;47.474;19.056;2023-02-28T11:37:39;11.77;;;6.20;;
58768;SDS011;44536;47.474;19.056;2023-02-28T11:40:47;9.98;;;4.85;;
58768;SDS011;44536;47.474;19.056;2023-02-28T11:47:44;10.50;;;5.28;;
58768;SDS011;44536;47.474;19.056;2023-02-28T12:05:15;10.40;;;5.87;;
58768;SDS011;44536;47.474;19.056;2023-02-28T12:08:42;9.18;;;4.85;;
58768;SDS011;44536;47.474;19.056;2023-02-28T12:18:42;10.52;;;5.80;;
58768;SDS011;44536;47.474;19.056;2023-02-28T12:28:09;10.55;;;5.05;;
58768;SDS011;44536;47.474;19.056;2023-02-28T12:31:26;8.18;;;4.78;;
58768;SDS011;44536;47.474;19.056;2023-02-28T12:34:36;10.13;;;4.70;;
58768;SDS011;44536;47.474;19.056;2023-02-28T12:37:44;9.07;;;4.35;;
58768;SDS011;44536;47.474;19.056;2023-02-28T12:40:55;9.82;;;5.22;;
58768;SDS011;44536;47.474;19.056;2023-02-28T12:44:05;8.82;;;4.78;;
58768;SDS011;44536;47.474;19.056;2023-02-28T12:47:15;9.35;;;4.78;;
58768;SDS011;44536;47.474;19.056;2023-02-28T12:50:21;10.25;;;6.65;;
58768;SDS011;44536;47.474;19.056;2023-02-28T13:00:28;7.68;;;4.53;;
58768;SDS011;44536;47.474;19.056;2023-02-28T13:03:27;8.60;;;4.70;;
58768;SDS011;44536;47.474;19.056;2023-02-28T13:10:17;10.07;;;4.57;;
58768;SDS011;44536;47.474;19.056;2023-02-28T13:20:17;12.57;;;5.75;;
58768;SDS011;44536;47.474;19.056;2023-02-28T13:23:36;10.45;;;5.43;;
58768;SDS011;44536;47.474;19.056;2023-02-28T13:27:11;8.85;;;5.03;;
58768;SDS011;44536;47.474;19.056;2023-02-28T13:36:57;10.05;;;4.62;;
58768;SDS011;44536;47.474;19.056;2023-02-28T13:40:27;12.50;;;4.90;;
58768;SDS011;44536;47.474;19.056;2023-02-28T13:43:58;8.73;;;4.70;;
58768;SDS011;44536;47.474;19.056;2023-02-28T14:03:51;7.50;;;3.50;;
58768;SDS011;44536;47.474;19.056;2023-02-28T14:07:05;7.25;;;4.10;;
58768;SDS011;44536;47.474;19.056;2023-02-28T14:10:15;10.73;;;3.85;;
58768;SDS011;44536;47.474;19.056;2023-02-28T14:13:43;7.55;;;4.32;;
58768;SDS011;44536;47.474;19.056;2023-02-28T14:16:49;9.73;;;4.12;;
58768;SDS011;44536;47.474;19.056;2023-02-28T14:19:52;9.38;;;4.50;;
58768;SDS011;44536;47.474;19.056;2023-02-28T14:26:26;8.20;;;3.60;;
58768;SDS011;44536;47.474;19.056;2023-02-28T14:33:00;8.35;;;4.10;;
58768;SDS011;44536;47.474;19.056;2023-02-28T14:36:30;11.50;;;4.03;;
58768;SDS011;44536;47.474;19.056;2023-02-28T14:39:41;11.15;;;4.68;;
58768;SDS011;44536;47.474;19.056;2023-02-28T14:42:55;10.27;;;4.37;;
58768;SDS011;44536;47.474;19.056;2023-02-28T14:46:08;10.32;;;4.72;;
58768;SDS011;44536;47.474;19.056;2023-02-28T14:49:24;10.52;;;4.05;;
58768;SDS011;44536;47.474;19.056;2023-02-28T14:52:30;11.48;;;5.00;;
58768;SDS011;44536;47.474;19.056;2023-02-28T14:55:35;11.57;;;5.55;;
58768;SDS011;44536;47.474;19.056;2023-02-28T14:58:37;9.37;;;5.27;;
58768;SDS011;44536;47.474;19.056;2023-02-28T15:01:40;10.75;;;4.50;;
58768;SDS011;44536;47.474;19.056;2023-02-28T15:04:42;9.48;;;4.47;;
58768;SDS011;44536;47.474;19.056;2023-02-28T15:07:48;7.82;;;3.80;;
58768;SDS011;44536;47.474;19.056;2023-02-28T15:11:03;9.90;;;3.75;;
58768;SDS011;44536;47.474;19.056;2023-02-28T15:14:13;9.82;;;4.78;;
58768;SDS011;44536;47.474;19.056;2023-02-28T15:17:22;8.70;;;4.40;;
58768;SDS011;44536;47.474;19.056;2023-02-28T15:20:26;12.52;;;5.45;;
58768;SDS011;44536;47.474;19.056;2023-02-28T15:23:29;11.63;;;6.50;;
58768;SDS011;44536;47.474;19.056;2023-02-28T15:26:34;10.55;;;4.43;;
58768;SDS011;44536;47.474;19.056;2023-02-28T15:29:44;10.88;;;5.00;;
58768;SDS011;44536;47.474;19.056;2023-02-28T15:36:28;9.93;;;4.95;;
58768;SDS011;44536;47.474;19.056;2023-02-28T15:39:34;9.57;;;5.18;;
58768;SDS011;44536;47.474;19.056;2023-02-28T15:46:17;12.00;;;6.68;;
58768;SDS011;44536;47.474;19.056;2023-02-28T15:49:21;12.05;;;5.78;;
58768;SDS011;44536;47.474;19.056;2023-02-28T15:55:43;10.95;;;5.40;;
58768;SDS011;44536;47.474;19.056;2023-02-28T15:58:46;14.45;;;6.95;;
58768;SDS011;44536;47.474;19.056;2023-02-28T16:02:02;12.85;;;5.30;;
58768;SDS011;44536;47.474;19.056;2023-02-28T16:08:20;12.23;;;5.93;;
58768;SDS011;44536;47.474;19.056;2023-02-28T16:11:23;13.23;;;6.18;;
58768;SDS011;44536;47.474;19.056;2023-02-28T16:14:25;11.50;;;5.68;;
58768;SDS011;44536;47.474;19.056;2023-02-28T16:17:31;12.63;;;5.82;;
58768;SDS011;44536;47.474;19.056;2023-02-28T16:20:35;10.63;;;5.18;;
58768;SDS011;44536;47.474;19.056;2023-02-28T16:23:38;10.95;;;7.47;;
58768;SDS011;44536;47.474;19.056;2023-02-28T16:26:41;11.60;;;5.45;;
58768;SDS011;44536;47.474;19.056;2023-02-28T16:29:50;12.23;;;5.35;;
58768;SDS011;44536;47.474;19.056;2023-02-28T16:32:54;11.48;;;7.15;;
58768;SDS011;44536;47.474;19.056;2023-02-28T16:35:57;13.40;;;6.47;;
58768;SDS011;44536;47.474;19.056;2023-02-28T16:39:00;14.32;;;6.65;;
58768;SDS011;44536;47.474;19.056;2023-02-28T16:42:04;10.20;;;5.43;;
58768;SDS011;44536;47.474;19.056;2023-02-28T16:45:11;12.77;;;6.22;;
58768;SDS011;44536;47.474;19.056;2023-02-28T16:48:18;12.70;;;5.50;;
58768;SDS011;44536;47.474;19.056;2023-02-28T16:51:20;12.68;;;5.50;;
58768;SDS011;44536;47.474;19.056;2023-02-28T16:54:23;12.82;;;6.00;;
58768;SDS011;44536;47.474;19.056;2023-02-28T16:57:25;14.20;;;6.30;;
58768;SDS011;44536;47.474;19.056;2023-02-28T17:00:28;11.90;;;5.62;;
58768;SDS011;44536;47.474;19.056;2023-02-28T17:03:32;12.65;;;6.10;;
58768;SDS011;44536;47.474;19.056;2023-02-28T17:06:35;10.43;;;4.80;;
58768;SDS011;44536;47.474;19.056;2023-02-28T17:09:37;12.75;;;5.57;;
58768;SDS011;44536;47.474;19.056;2023-02-28T17:12:44;11.40;;;5.95;;
58768;SDS011;44536;47.474;19.056;2023-02-28T17:15:46;11.12;;;5.97;;
58768;SDS011;44536;47.474;19.056;2023-02-28T17:18:50;11.30;;;6.35;;
58768;SDS011;44536;47.474;19.056;2023-02-28T17:21:52;17.98;;;7.07;;
58768;SDS011;44536;47.474;19.056;2023-02-28T17:24:55;15.00;;;7.07;;
58768;SDS011;44536;47.474;19.056;2023-02-28T17:27:57;12.93;;;6.45;;
58768;SDS011;44536;47.474;19.056;2023-02-28T17:31:00;12.93;;;6.37;;
58768;SDS011;44536;47.474;19.056;2023-02-28T17:34:02;12.65;;;6.12;;
58768;SDS011;44536;47.474;19.056;2023-02-28T17:37:05;12.85;;;5.72;;
58768;SDS011;44536;47.474;19.056;2023-02-28T17:40:14;13.20;;;6.82;;
58768;SDS011;44536;47.474;19.056;2023-02-28T17:43:25;12.60;;;6.47;;
58768;SDS011;44536;47.474;19.056;2023-02-28T17:46:28;13.07;;;7.28;;
58768;SDS011;44536;47.474;19.056;2023-02-28T17:49:31;13.57;;;6.95;;
58768;SDS011;44536;47.474;19.056;2023-02-28T17:52:35;15.20;;;6.57;;
58768;SDS011;44536;47.474;19.056;2023-02-28T17:55:38;14.02;;;6.37;;
58768;SDS011;44536;47.474;19.056;2023-02-28T17:58:42;14.40;;;7.65;;
58768;SDS011;44536;47.474;19.056;2023-02-28T18:01:44;11.95;;;6.43;;
58768;SDS011;44536;47.474;19.056;2023-02-28T18:04:47;13.15;;;7.00;;
58768;SDS011;44536;47.474;19.056;2023-02-28T18:07:49;13.82;;;6.70;;
58768;SDS011;44536;47.474;19.056;2023-02-28T18:10:52;11.63;;;6.28;;
58768;SDS011;44536;47.474;19.056;2023-02-28T18:13:54;11.90;;;5.40;;
58768;SDS011;44536;47.474;19.056;2023-02-28T18:16:58;11.63;;;6.12;;
58768;SDS011;44536;47.474;19.056;2023-02-28T18:20:00;13.13;;;5.30;;
58768;SDS011;44536;47.474;19.056;2023-02-28T18:23:03;12.25;;;6.90;;
58768;SDS011;44536;47.474;19.056;2023-02-28T18:26:06;13.48;;;6.68;;
58768;SDS011;44536;47.474;19.056;2023-02-28T18:29:14;14.25;;;6.22;;
58768;SDS011;44536;47.474;19.056;2023-02-28T18:32:18;11.48;;;6.30;;
58768;SDS011;44536;47.474;19.056;2023-02-28T18:35:21;10.70;;;5.53;;
58768;SDS011;44536;47.474;19.056;2023-02-28T18:38:37;11.50;;;6.32;;
58768;SDS011;44536;47.474;19.056;2023-02-28T18:41:40;11.55;;;6.50;;
58768;SDS011;44536;47.474;19.056;2023-02-28T18:44:42;13.88;;;7.07;;
58768;SDS011;44536;47.474;19.056;2023-02-28T18:47:45;12.05;;;5.87;;
58768;SDS011;44536;47.474;19.056;2023-02-28T18:50:48;13.10;;;7.70;;
58768;SDS011;44536;47.474;19.056;2023-02-28T18:53:51;13.32;;;6.18;;
58768;SDS011;44536;47.474;19.056;2023-02-28T18:56:55;15.07;;;6.72;;
58768;SDS011;44536;47.474;19.056;2023-02-28T18:59:59;16.00;;;7.55;;
58768;SDS011;44536;47.474;19.056;2023-02-28T19:03:02;10.15;;;6.15;;
58768;SDS011;44536;47.474;19.056;2023-02-28T19:06:05;15.52;;;7.62;;
58768;SDS011;44536;47.474;19.056;2023-02-28T19:09:08;13.65;;;8.40;;
58768;SDS011;44536;47.474;19.056;2023-02-28T19:12:11;12.82;;;6.93;;
58768;SDS011;44536;47.474;19.056;2023-02-28T19:15:13;14.18;;;8.15;;
58768;SDS011;44536;47.474;19.056;2023-02-28T19:18:16;18.25;;;9.30;;
58768;SDS011;44536;47.474;19.056;2023-02-28T19:21:19;14.85;;;8.88;;
58768;SDS011;44536;47.474;19.056;2023-02-28T19:24:22;11.43;;;7.57;;
58768;SDS011;44536;47.474;19.056;2023-02-28T19:27:25;14.90;;;8.43;;
58768;SDS011;44536;47.474;19.056;2023-02-28T19:30:28;17.15;;;9.40;;
58768;SDS011;44536;47.474;19.056;2023-02-28T19:33:30;16.75;;;9.48;;
58768;SDS011;44536;47.474;19.056;2023-02-28T19:36:33;16.02;;;9.40;;
58768;SDS011;44536;47.474;19.056;2023-02-28T19:39:35;15.68;;;7.68;;
58768;SDS011;44536;47.474;19.056;2023-02-28T19:42:43;15.65;;;8.63;;
58768;SDS011;44536;47.474;19.056;2023-02-28T19:45:46;16.12;;;8.55;;
58768;SDS011;44536;47.474;19.056;2023-02-28T19:48:53;15.68;;;8.00;;
58768;SDS011;44536;47.474;19.056;2023-02-28T19:51:55;17.08;;;8.95;;
58768;SDS011;44536;47.474;19.056;2023-02-28T19:54:58;17.25;;;9.45;;
58768;SDS011;44536;47.474;19.056;2023-02-28T19:58:00;18.60;;;9.95;;
58768;SDS011;44536;47.474;19.056;2023-02-28T20:01:07;13.85;;;8.13;;
58768;SDS011;44536;47.474;19.056;2023-02-28T20:04:11;21.05;;;8.88;;
58768;SDS011;44536;47.474;19.056;2023-02-28T20:07:13;18.25;;;9.35;;
58768;SDS011;44536;47.474;19.056;2023-02-28T20:13:19;14.80;;;8.27;;
58768;SDS011;44536;47.474;19.056;2023-02-28T20:16:24;15.82;;;8.07;;
58768;SDS011;44536;47.474;19.056;2023-02-28T20:19:30;16.90;;;8.13;;
58768;SDS011;44536;47.474;19.056;2023-02-28T20:22:33;14.07;;;7.93;;
58768;SDS011;44536;47.474;19.056;2023-02-28T20:25:38;13.80;;;8.07;;
58768;SDS011;44536;47.474;19.056;2023-02-28T20:28:42;12.65;;;7.28;;
58768;SDS011;44536;47.474;19.056;2023-02-28T20:31:44;17.20;;;8.35;;
58768;SDS011;44536;47.474;19.056;2023-02-28T20:34:47;14.18;;;7.75;;
58768;SDS011;44536;47.474;19.056;2023-02-28T20:37:49;15.82;;;8.32;;
58768;SDS011;44536;47.474;19.056;2023-02-28T20:40:54;15.43;;;8.32;;
58768;SDS011;44536;47.474;19.056;2023-02-28T20:43:59;13.40;;;7.78;;
58768;SDS011;44536;47.474;19.056;2023-02-28T20:47:04;19.73;;;8.45;;
58768;SDS011;44536;47.474;19.056;2023-02-28T20:50:07;14.75;;;7.60;;